Time;durP1;ratioP1;P1;durP2;ratioP2;P2;SDS_P1;SDS_P2;PMS_P1;PMS_P2;Temp;Humidity;BMP_temperature;BMP_pressure;BME280_temperature;BME280_humidity;BME280_pressure;Samples;Min_cycle;Max_cycle;Signal;HPM_P1;HPM_P2
2022/10/26 00:01:05;;;;;;;13.67;9.03;;;11.60;99.90;;;;;;5074180;28;20732;-57
2022/10/26 00:03:34;;;;;;;11.80;9.87;;;11.50;99.90;;;;;;5074330;28;20575;-56
2022/10/26 00:06:07;;;;;;;13.43;10.37;;;11.50;99.90;;;;;;5074621;28;20280;-56
2022/10/26 00:08:35;;;;;;;15.33;10.73;;;11.50;99.90;;;;;;5074636;28;20244;-56
2022/10/26 00:11:06;;;;;;;14.80;10.33;;;11.50;99.90;;;;;;5074429;28;20241;-56
2022/10/26 00:13:35;;;;;;;14.13;10.20;;;11.50;99.90;;;;;;5074210;28;20292;-56
2022/10/26 00:16:08;;;;;;;17.43;10.80;;;11.50;99.90;;;;;;5071626;28;20220;-56
2022/10/26 00:18:37;;;;;;;15.10;9.53;;;11.50;99.90;;;;;;5054199;28;20601;-56
2022/10/26 00:21:06;;;;;;;14.67;10.83;;;11.50;99.90;;;;;;5074851;28;20246;-56
2022/10/26 00:23:34;;;;;;;13.30;10.97;;;11.50;99.90;;;;;;5078629;28;20626;-56
2022/10/26 00:26:02;;;;;;;13.63;11.10;;;11.50;99.90;;;;;;5074203;28;20586;-56
2022/10/26 00:28:31;;;;;;;13.23;9.77;;;11.50;99.90;;;;;;5074512;28;20239;-57
2022/10/26 00:31:01;;;;;;;15.13;10.87;;;11.50;99.90;;;;;;5073363;28;20281;-55
2022/10/26 00:33:29;;;;;;;13.10;10.67;;;11.50;99.90;;;;;;5073817;28;20230;-56
2022/10/26 00:35:58;;;;;;;15.47;11.93;;;11.50;99.90;;;;;;5073821;28;20588;-56
2022/10/26 00:38:26;;;;;;;14.57;11.03;;;11.50;99.90;;;;;;5073742;28;20593;-56
2022/10/26 00:40:54;;;;;;;15.00;11.30;;;11.50;99.90;;;;;;5073580;28;20236;-56
2022/10/26 00:43:37;;;;;;;15.30;10.83;;;11.40;99.90;;;;;;5073743;28;20232;-56
2022/10/26 00:46:10;;;;;;;11.70;9.87;;;11.40;99.90;;;;;;5073516;28;20228;-56
2022/10/26 00:48:43;;;;;;;12.80;10.87;;;11.40;99.90;;;;;;5073334;28;20277;-56
2022/10/26 00:51:15;;;;;;;13.80;10.20;;;11.40;99.90;;;;;;5076746;28;20224;-56
2022/10/26 00:53:44;;;;;;;18.30;10.90;;;11.30;99.90;;;;;;5076625;28;20228;-56
2022/10/26 00:56:12;;;;;;;13.00;10.50;;;11.30;99.90;;;;;;5073574;28;20695;-55
2022/10/26 00:58:42;;;;;;;12.73;9.63;;;11.30;99.90;;;;;;5075531;28;20637;-56
2022/10/26 01:01:11;;;;;;;14.27;10.40;;;11.30;99.90;;;;;;5072684;28;20286;-56
2022/10/26 01:03:39;;;;;;;12.17;10.00;;;11.30;99.90;;;;;;5072899;28;20220;-56
2022/10/26 01:06:09;;;;;;;14.37;10.80;;;11.30;99.90;;;;;;5073424;28;20734;-56
2022/10/26 01:08:37;;;;;;;13.93;10.53;;;11.30;99.90;;;;;;5073227;28;20230;-56
2022/10/26 01:11:06;;;;;;;12.50;10.33;;;11.20;99.90;;;;;;5072973;28;20229;-55
2022/10/26 01:13:35;;;;;;;13.47;10.43;;;11.20;99.90;;;;;;5073069;28;20232;-56
2022/10/26 01:16:20;;;;;;;15.00;10.37;;;11.20;99.90;;;;;;5073222;28;20233;-57
2022/10/26 01:18:59;;;;;;;13.47;10.77;;;11.20;99.90;;;;;;5073063;28;20707;-56
2022/10/26 01:21:51;;;;;;;12.83;10.07;;;11.10;99.90;;;;;;5078619;28;20223;-55
2022/10/26 01:24:33;;;;;;;14.23;11.03;;;11.10;99.90;;;;;;5052849;28;20262;-56
2022/10/26 01:27:29;;;;;;;12.33;10.60;;;11.10;99.90;;;;;;5053145;28;20235;-56
2022/10/26 01:30:23;;;;;;;14.67;10.20;;;11.10;99.90;;;;;;5052159;28;20233;-56
2022/10/26 01:33:12;;;;;;;14.47;11.00;;;11.10;99.90;;;;;;5057693;28;20747;-56
2022/10/26 01:35:49;;;;;;;14.43;10.60;;;11.00;99.90;;;;;;5070234;28;20243;-55
2022/10/26 01:38:25;;;;;;;12.33;10.57;;;11.10;99.90;;;;;;5072965;28;20233;-56
2022/10/26 01:41:02;;;;;;;13.67;10.90;;;11.00;99.90;;;;;;5073202;28;20241;-56
2022/10/26 01:43:33;;;;;;;12.73;10.47;;;11.00;99.90;;;;;;5072712;28;20231;-56
2022/10/26 01:46:04;;;;;;;15.97;10.60;;;11.00;99.90;;;;;;5072909;28;20231;-56
2022/10/26 01:48:33;;;;;;;13.23;10.33;;;11.00;99.90;;;;;;5072390;28;20688;-56
2022/10/26 01:51:03;;;;;;;13.83;10.73;;;11.00;99.90;;;;;;5075080;28;20224;-56
2022/10/26 01:53:31;;;;;;;16.33;10.77;;;11.00;99.90;;;;;;5077661;28;20266;-56
2022/10/26 01:56:01;;;;;;;14.53;10.43;;;11.00;99.90;;;;;;5072415;28;20236;-56
2022/10/26 01:58:53;;;;;;;14.03;10.50;;;11.00;99.90;;;;;;5072580;28;20691;-56
2022/10/26 02:01:35;;;;;;;13.07;10.50;;;11.00;99.90;;;;;;5072192;28;20248;-56
2022/10/26 02:04:10;;;;;;;13.47;10.53;;;10.90;99.90;;;;;;5072598;28;20741;-56
2022/10/26 02:06:51;;;;;;;14.37;10.80;;;10.90;99.90;;;;;;5072101;28;20280;-56
2022/10/26 02:09:26;;;;;;;14.10;10.63;;;10.90;99.90;;;;;;5072302;28;20231;-56
2022/10/26 02:11:55;;;;;;;13.23;9.93;;;10.80;99.90;;;;;;5072762;28;20234;-56
2022/10/26 02:14:32;;;;;;;15.17;10.77;;;10.90;99.90;;;;;;5072594;28;20232;-56
2022/10/26 02:17:07;;;;;;;13.13;10.50;;;10.80;99.90;;;;;;5072900;28;20235;-56
2022/10/26 02:19:40;;;;;;;11.50;10.20;;;10.90;99.90;;;;;;5067956;28;20619;-56
2022/10/26 02:22:14;;;;;;;14.97;10.60;;;10.80;99.90;;;;;;5080649;28;20232;-55
2022/10/26 02:24:43;;;;;;;12.63;10.67;;;10.80;99.90;;;;;;5072345;28;20230;-56
2022/10/26 02:27:16;;;;;;;14.27;11.67;;;10.80;99.90;;;;;;5072378;28;20716;-56
2022/10/26 02:29:44;;;;;;;14.00;11.47;;;10.80;99.90;;;;;;5072292;28;20236;-56
2022/10/26 02:32:14;;;;;;;13.90;10.77;;;10.80;99.90;;;;;;5071734;28;20246;-56
2022/10/26 02:34:45;;;;;;;15.17;11.87;;;10.80;99.90;;;;;;5068222;28;20235;-56
2022/10/26 02:37:15;;;;;;;16.30;11.43;;;10.70;99.90;;;;;;5052137;28;20655;-56
2022/10/26 02:39:44;;;;;;;14.00;10.97;;;10.70;99.90;;;;;;5052230;28;20233;-56
2022/10/26 02:42:15;;;;;;;15.40;11.67;;;10.70;99.90;;;;;;5052368;28;20229;-56
2022/10/26 02:44:48;;;;;;;16.20;12.13;;;10.70;99.90;;;;;;5051894;28;20241;-56
2022/10/26 02:47:19;;;;;;;14.77;11.07;;;10.70;99.90;;;;;;5052291;28;20584;-55
2022/10/26 02:49:47;;;;;;;16.57;11.47;;;10.70;99.90;;;;;;5064761;28;20709;-55
2022/10/26 02:52:23;;;;;;;15.43;11.40;;;10.70;99.90;;;;;;5080216;28;20360;-56
2022/10/26 02:54:54;;;;;;;13.87;11.77;;;10.60;99.90;;;;;;5072256;28;20231;-57
2022/10/26 02:57:26;;;;;;;14.50;12.00;;;10.60;99.90;;;;;;5071933;28;20224;-56
2022/10/26 02:59:55;;;;;;;16.37;11.80;;;10.60;99.90;;;;;;5072138;28;20240;-56
2022/10/26 03:02:25;;;;;;;14.87;11.57;;;10.60;99.90;;;;;;5072556;28;20233;-55
2022/10/26 03:04:55;;;;;;;16.40;12.07;;;10.60;99.90;;;;;;5073798;28;20229;-56
2022/10/26 03:07:23;;;;;;;16.00;12.30;;;10.50;99.90;;;;;;5071830;28;20219;-56
2022/10/26 03:09:52;;;;;;;17.43;13.37;;;10.50;99.90;;;;;;5074896;28;20277;-56
2022/10/26 03:12:20;;;;;;;16.17;12.50;;;10.50;99.90;;;;;;5075464;28;20224;-56
2022/10/26 03:14:48;;;;;;;17.57;12.70;;;10.50;99.90;;;;;;5075091;28;20231;-56
2022/10/26 03:17:16;;;;;;;18.73;13.87;;;10.50;99.90;;;;;;5075397;28;20271;-55
2022/10/26 03:19:45;;;;;;;14.27;12.30;;;10.50;99.90;;;;;;5074958;28;20773;-55
2022/10/26 03:22:13;;;;;;;17.97;13.83;;;10.50;99.90;;;;;;5083423;28;20230;-56
2022/10/26 03:24:41;;;;;;;20.13;14.53;;;10.50;99.90;;;;;;5075008;28;20214;-56
2022/10/26 03:27:09;;;;;;;16.30;13.00;;;10.50;99.90;;;;;;5075335;28;20220;-56
2022/10/26 03:29:37;;;;;;;18.77;14.43;;;10.50;99.90;;;;;;5075134;28;20584;-56
2022/10/26 03:32:06;;;;;;;21.90;14.77;;;10.50;99.90;;;;;;5074444;28;20242;-56
2022/10/26 03:34:34;;;;;;;20.67;14.90;;;10.50;99.90;;;;;;5074816;28;20227;-56
2022/10/26 03:37:03;;;;;;;19.77;14.77;;;10.50;99.90;;;;;;5074679;28;20255;-57
2022/10/26 03:39:31;;;;;;;16.60;14.77;;;10.50;99.90;;;;;;5074998;28;20278;-56
2022/10/26 03:41:59;;;;;;;18.50;15.03;;;10.50;99.90;;;;;;5075063;28;20694;-56
2022/10/26 03:44:27;;;;;;;19.87;14.57;;;10.50;99.90;;;;;;5074816;28;20227;-56
2022/10/26 03:46:55;;;;;;;20.07;14.40;;;10.50;99.90;;;;;;5075003;28;20225;-56
2022/10/26 03:49:23;;;;;;;19.03;14.90;;;10.40;99.90;;;;;;5074848;28;20235;-56
2022/10/26 03:51:51;;;;;;;21.53;14.90;;;10.40;99.90;;;;;;5082888;28;20219;-56
2022/10/26 03:54:21;;;;;;;23.63;16.13;;;10.50;99.90;;;;;;5074590;28;20235;-56
2022/10/26 03:56:49;;;;;;;23.47;15.63;;;10.40;99.90;;;;;;5074718;28;20683;-56
2022/10/26 03:59:21;;;;;;;20.17;15.73;;;10.40;99.90;;;;;;5074773;28;20751;-56
2022/10/26 04:01:49;;;;;;;21.83;15.97;;;10.40;99.90;;;;;;5074059;28;20250;-56
2022/10/26 04:04:23;;;;;;;21.67;16.10;;;10.40;99.90;;;;;;5078300;28;20502;-56
2022/10/26 04:06:52;;;;;;;18.80;15.50;;;10.40;99.90;;;;;;5074548;28;20265;-56
2022/10/26 04:09:21;;;;;;;19.73;15.20;;;10.40;99.90;;;;;;5074326;28;20220;-56
2022/10/26 04:11:49;;;;;;;22.10;15.83;;;10.40;99.90;;;;;;5074330;28;20614;-56
2022/10/26 04:14:17;;;;;;;20.57;15.77;;;10.30;99.90;;;;;;5074094;28;20233;-56
2022/10/26 04:16:45;;;;;;;18.50;14.67;;;10.30;99.90;;;;;;5071165;28;20231;-56
2022/10/26 04:19:13;;;;;;;19.47;15.57;;;10.30;99.90;;;;;;5073845;28;20694;-55
2022/10/26 04:21:41;;;;;;;19.47;14.63;;;10.30;99.90;;;;;;5081890;28;20632;-56
2022/10/26 04:24:10;;;;;;;19.30;14.67;;;10.30;99.90;;;;;;5053995;28;20233;-56
2022/10/26 04:26:39;;;;;;;19.27;15.50;;;10.30;99.90;;;;;;5054066;28;20632;-56
2022/10/26 04:29:08;;;;;;;23.70;16.60;;;10.30;99.90;;;;;;5053940;28;20223;-56
2022/10/26 04:31:36;;;;;;;22.60;16.10;;;10.20;99.90;;;;;;5053367;28;20699;-57
2022/10/26 04:34:04;;;;;;;20.40;15.67;;;10.20;99.90;;;;;;5072179;28;20235;-56
2022/10/26 04:36:33;;;;;;;19.90;15.20;;;10.20;99.90;;;;;;5073615;28;20749;-56
2022/10/26 04:39:01;;;;;;;20.17;15.93;;;10.20;99.90;;;;;;5073716;28;20225;-56
2022/10/26 04:41:29;;;;;;;22.93;17.00;;;10.20;99.90;;;;;;5073659;28;20239;-56
2022/10/26 04:43:59;;;;;;;20.20;15.33;;;10.20;99.90;;;;;;5073879;28;20282;-56
2022/10/26 04:46:26;;;;;;;22.30;16.17;;;10.20;99.90;;;;;;5073388;28;20239;-56
2022/10/26 04:48:54;;;;;;;21.00;15.80;;;10.20;99.90;;;;;;5073678;28;20223;-56
2022/10/26 04:51:23;;;;;;;22.10;15.90;;;10.20;99.90;;;;;;5081342;28;20226;-56
2022/10/26 04:53:53;;;;;;;23.63;16.80;;;10.10;99.90;;;;;;5058380;28;20695;-56
2022/10/26 04:56:21;;;;;;;22.27;17.23;;;10.10;99.90;;;;;;5072924;28;20243;-56
2022/10/26 04:58:49;;;;;;;21.83;18.00;;;10.10;99.90;;;;;;5073324;28;20694;-56
2022/10/26 05:01:19;;;;;;;23.27;18.13;;;10.00;99.90;;;;;;5072864;28;20239;-56
2022/10/26 05:03:49;;;;;;;20.40;16.53;;;10.00;99.90;;;;;;5072908;28;20223;-57
2022/10/26 05:06:17;;;;;;;21.30;16.13;;;10.00;99.90;;;;;;5073168;28;20227;-56
2022/10/26 05:08:45;;;;;;;20.37;15.93;;;10.00;99.90;;;;;;5073015;28;20254;-56
2022/10/26 05:11:14;;;;;;;22.70;16.93;;;10.00;99.90;;;;;;5073286;28;20281;-56
2022/10/26 05:13:42;;;;;;;21.60;17.60;;;10.00;99.90;;;;;;5073092;28;20695;-56
2022/10/26 05:16:10;;;;;;;22.40;16.80;;;10.00;99.90;;;;;;5073023;28;20234;-56
2022/10/26 05:18:39;;;;;;;22.57;17.43;;;10.00;99.90;;;;;;5072829;28;20226;-56
2022/10/26 05:21:07;;;;;;;24.90;18.60;;;10.00;99.90;;;;;;5076092;28;20218;-56
2022/10/26 05:23:35;;;;;;;22.73;17.90;;;10.00;99.90;;;;;;5077311;28;20231;-56
2022/10/26 05:26:03;;;;;;;22.47;17.53;;;9.90;99.90;;;;;;5073120;28;20273;-56
2022/10/26 05:28:31;;;;;;;22.67;17.50;;;10.00;99.90;;;;;;5072942;28;20224;-56
2022/10/26 05:30:59;;;;;;;23.57;16.47;;;9.90;99.90;;;;;;5071812;28;20246;-56
2022/10/26 05:33:27;;;;;;;19.03;16.03;;;9.90;99.90;;;;;;5072713;28;20223;-56
2022/10/26 05:35:57;;;;;;;19.57;16.10;;;9.90;99.90;;;;;;5072657;28;20220;-56
2022/10/26 05:38:25;;;;;;;23.00;15.53;;;9.90;99.90;;;;;;5072958;28;20231;-56
2022/10/26 05:41:00;;;;;;;20.53;16.20;;;9.90;99.90;;;;;;5072695;28;20215;-56
2022/10/26 05:43:29;;;;;;;20.33;15.57;;;9.90;99.90;;;;;;5072472;28;20278;-56
2022/10/26 05:45:57;;;;;;;20.23;17.07;;;9.90;99.90;;;;;;5072895;28;20230;-56
2022/10/26 05:48:25;;;;;;;20.53;16.30;;;9.90;99.90;;;;;;5072483;28;20235;-55
2022/10/26 05:50:53;;;;;;;18.53;15.43;;;9.80;99.90;;;;;;5074020;28;20587;-56
2022/10/26 05:53:22;;;;;;;20.03;15.77;;;9.80;99.90;;;;;;5079155;28;20636;-56
2022/10/26 05:55:51;;;;;;;21.53;15.23;;;9.80;99.90;;;;;;5072469;28;20220;-56
2022/10/26 05:58:20;;;;;;;21.37;14.83;;;9.80;99.90;;;;;;5072485;28;20231;-56
2022/10/26 06:00:59;;;;;;;18.40;14.87;;;9.80;99.90;;;;;;5072149;28;20576;-56
2022/10/26 06:03:41;;;;;;;20.10;15.17;;;9.80;99.90;;;;;;5072189;28;20293;-55
2022/10/26 06:06:11;;;;;;;17.87;14.63;;;9.80;99.90;;;;;;5064547;28;20238;-55
2022/10/26 06:08:42;;;;;;;19.13;14.83;;;9.80;99.90;;;;;;5072411;28;20231;-56
2022/10/26 06:11:11;;;;;;;18.80;14.50;;;9.70;99.90;;;;;;5084378;28;20214;-56
2022/10/26 06:13:39;;;;;;;20.57;16.10;;;9.70;99.90;;;;;;5092602;28;20678;-56
2022/10/26 06:16:21;;;;;;;20.60;15.10;;;9.70;99.90;;;;;;5092848;28;20218;-55
2022/10/26 06:19:00;;;;;;;17.10;14.13;;;9.70;99.90;;;;;;5091343;28;20231;-55
2022/10/26 06:21:48;;;;;;;21.13;15.07;;;9.70;99.90;;;;;;5063426;28;20226;-56
2022/10/26 06:24:24;;;;;;;17.80;13.83;;;9.70;99.90;;;;;;5034622;28;20234;-56
2022/10/26 06:26:57;;;;;;;19.00;14.63;;;9.60;99.90;;;;;;5052231;28;20228;-56
2022/10/26 06:29:39;;;;;;;18.20;14.40;;;9.60;99.90;;;;;;5057586;28;20215;-55
2022/10/26 06:32:09;;;;;;;17.70;14.00;;;9.60;99.90;;;;;;5072035;28;20235;-56
2022/10/26 06:34:42;;;;;;;17.80;13.90;;;9.70;99.90;;;;;;5072204;28;20696;-56
2022/10/26 06:37:12;;;;;;;16.93;12.93;;;9.70;99.90;;;;;;5072294;28;20607;-56
2022/10/26 06:39:45;;;;;;;16.63;12.37;;;9.70;99.90;;;;;;5072195;28;20234;-56
2022/10/26 06:42:19;;;;;;;18.63;13.43;;;9.70;99.90;;;;;;5073054;28;20231;-56
2022/10/26 06:44:48;;;;;;;16.67;12.27;;;9.70;99.90;;;;;;5075778;28;20220;-56
2022/10/26 06:47:22;;;;;;;15.57;12.20;;;9.70;99.90;;;;;;5076533;28;20231;-56
2022/10/26 06:50:00;;;;;;;16.43;12.50;;;9.70;99.90;;;;;;5087080;28;20246;-56
2022/10/26 06:52:35;;;;;;;14.63;12.20;;;9.80;99.90;;;;;;5087077;28;20227;-54
2022/10/26 06:55:05;;;;;;;18.23;11.97;;;9.80;99.90;;;;;;5096228;28;20589;-56
2022/10/26 06:57:35;;;;;;;12.87;11.43;;;9.90;99.90;;;;;;5096043;28;20234;-56
2022/10/26 07:00:07;;;;;;;13.33;11.50;;;9.90;99.90;;;;;;5095835;28;20262;-55
2022/10/26 07:02:35;;;;;;;15.93;11.63;;;9.90;99.90;;;;;;5095460;28;20333;-56
2022/10/26 07:05:03;;;;;;;14.03;12.10;;;9.90;99.90;;;;;;5095877;28;20580;-56
2022/10/26 07:07:31;;;;;;;15.60;12.50;;;10.00;99.90;;;;;;5095826;28;20705;-56
2022/10/26 07:10:00;;;;;;;15.57;11.67;;;10.10;99.90;;;;;;5096015;28;20226;-56
2022/10/26 07:12:30;;;;;;;16.47;12.67;;;10.20;99.90;;;;;;5095751;28;20227;-56
2022/10/26 07:15:00;;;;;;;13.37;11.00;;;10.20;99.90;;;;;;5095578;28;20238;-56
2022/10/26 07:17:29;;;;;;;14.97;11.90;;;10.20;99.90;;;;;;5095637;28;20273;-55
2022/10/26 07:19:57;;;;;;;13.30;11.20;;;10.30;99.90;;;;;;5088531;28;20224;-56
2022/10/26 07:22:25;;;;;;;13.23;10.43;;;10.40;99.90;;;;;;5087059;28;20227;-55
2022/10/26 07:24:53;;;;;;;14.03;10.93;;;10.40;99.90;;;;;;5095382;28;20711;-56
2022/10/26 07:27:26;;;;;;;14.87;10.83;;;10.50;99.90;;;;;;5095227;28;20223;-56
2022/10/26 07:29:55;;;;;;;15.63;10.70;;;10.60;99.90;;;;;;5095631;28;20219;-56
2022/10/26 07:32:23;;;;;;;11.17;9.90;;;10.60;99.90;;;;;;5094924;28;20768;-56
2022/10/26 07:34:51;;;;;;;12.50;9.67;;;10.70;99.90;;;;;;5095485;28;20227;-57
2022/10/26 07:37:19;;;;;;;14.93;10.13;;;10.60;99.90;;;;;;5095159;28;20292;-56
2022/10/26 07:39:47;;;;;;;13.80;10.10;;;10.60;99.90;;;;;;5095287;28;20234;-56
2022/10/26 07:42:15;;;;;;;14.57;10.10;;;10.60;99.90;;;;;;5095341;28;20558;-56
2022/10/26 07:44:43;;;;;;;12.03;9.87;;;10.60;99.90;;;;;;5095158;28;20215;-56
2022/10/26 07:47:13;;;;;;;12.67;10.40;;;10.60;99.90;;;;;;5094976;28;20238;-56
2022/10/26 07:49:41;;;;;;;13.50;10.80;;;10.70;99.90;;;;;;5088073;28;20227;-57
2022/10/26 07:52:09;;;;;;;13.77;10.57;;;10.80;99.90;;;;;;5073944;28;20226;-57
2022/10/26 07:54:37;;;;;;;13.40;10.17;;;10.90;99.90;;;;;;5073658;28;20228;-56
2022/10/26 07:57:05;;;;;;;13.60;9.97;;;11.00;99.90;;;;;;5075246;28;20643;-56
2022/10/26 07:59:34;;;;;;;14.43;10.77;;;11.10;99.90;;;;;;5074619;28;20221;-55
2022/10/26 08:02:01;;;;;;;13.63;10.77;;;11.20;99.90;;;;;;5082425;28;20245;-56
2022/10/26 08:04:31;;;;;;;14.97;10.57;;;11.40;99.90;;;;;;5094618;28;20232;-56
2022/10/26 08:06:59;;;;;;;12.80;10.60;;;11.60;99.90;;;;;;5094839;28;20310;-56
2022/10/26 08:09:27;;;;;;;13.83;10.47;;;11.70;99.90;;;;;;5094561;28;20228;-56
2022/10/26 08:11:55;;;;;;;13.70;11.30;;;11.80;99.90;;;;;;5086005;28;20234;-56
2022/10/26 08:14:23;;;;;;;11.87;10.10;;;12.10;99.90;;;;;;5074584;28;20224;-57
2022/10/26 08:16:51;;;;;;;13.57;10.40;;;12.30;99.90;;;;;;5074305;28;20709;-57
2022/10/26 08:19:20;;;;;;;14.83;10.83;;;12.50;99.90;;;;;;5074325;28;20601;-56
2022/10/26 08:21:49;;;;;;;12.07;10.03;;;12.70;99.90;;;;;;5081701;28;20242;-56
2022/10/26 08:24:17;;;;;;;14.37;11.83;;;12.80;99.90;;;;;;5073938;28;20259;-57
2022/10/26 08:26:45;;;;;;;13.70;11.97;;;12.90;99.90;;;;;;5070545;28;20221;-56
2022/10/26 08:29:13;;;;;;;15.10;12.13;;;13.10;99.90;;;;;;5074221;28;20221;-56
2022/10/26 08:31:42;;;;;;;14.47;12.17;;;13.30;99.90;;;;;;5073188;28;20243;-56
2022/10/26 08:34:10;;;;;;;14.20;11.77;;;13.40;99.90;;;;;;5073989;28;20585;-56
2022/10/26 08:36:38;;;;;;;12.43;11.20;;;13.60;99.90;;;;;;5073533;28;20252;-56
2022/10/26 08:39:07;;;;;;;11.27;10.17;;;13.70;99.90;;;;;;5074014;28;20709;-56
2022/10/26 08:41:38;;;;;;;11.23;9.80;;;13.80;99.90;;;;;;5073536;28;20225;-56
2022/10/26 08:44:20;;;;;;;12.37;9.30;;;13.90;99.90;;;;;;5073608;28;20218;-56
2022/10/26 08:46:53;;;;;;;11.13;8.63;;;14.00;99.90;;;;;;5073690;28;20323;-56
2022/10/26 08:49:25;;;;;;;9.43;8.13;;;14.20;99.90;;;;;;5073873;28;20735;-56
2022/10/26 08:51:57;;;;;;;11.10;7.70;;;14.30;99.90;;;;;;5084410;28;20228;-56
2022/10/26 08:54:34;;;;;;;9.33;7.83;;;14.40;99.90;;;;;;5073256;28;20229;-56
2022/10/26 08:57:13;;;;;;;11.20;7.40;;;14.60;99.90;;;;;;5073582;28;20234;-56
2022/10/26 08:59:47;;;;;;;10.30;7.00;;;14.80;99.90;;;;;;5073139;28;20211;-56
2022/10/26 09:02:17;;;;;;;8.37;6.37;;;14.90;99.90;;;;;;5072968;28;20736;-56
2022/10/26 09:04:46;;;;;;;10.03;6.20;;;15.00;99.90;;;;;;5073102;28;20233;-56
2022/10/26 09:07:24;;;;;;;7.83;6.07;;;15.00;99.90;;;;;;5072594;28;20226;-56
2022/10/26 09:10:00;;;;;;;9.87;7.00;;;15.20;99.90;;;;;;5073298;28;20230;-56
2022/10/26 09:12:40;;;;;;;10.40;6.90;;;15.40;99.90;;;;;;5072821;28;20237;-56
2022/10/26 09:15:17;;;;;;;7.17;5.83;;;15.40;99.90;;;;;;5076202;28;20672;-56
2022/10/26 09:17:56;;;;;;;9.37;6.27;;;15.50;99.90;;;;;;5084572;28;20689;-56
2022/10/26 09:20:49;;;;;;;8.40;5.73;;;15.70;99.90;;;;;;5086289;28;20241;-56
2022/10/26 09:23:40;;;;;;;8.07;6.53;;;15.90;99.90;;;;;;5076944;28;20279;-55
2022/10/26 09:26:14;;;;;;;7.47;5.93;;;16.10;99.90;;;;;;5093001;28;20252;-56
2022/10/26 09:28:46;;;;;;;8.20;5.67;;;16.20;99.90;;;;;;5092885;28;20233;-56
2022/10/26 09:31:17;;;;;;;8.20;5.40;;;16.40;99.90;;;;;;5092724;28;20238;-56
2022/10/26 09:33:45;;;;;;;8.07;5.40;;;16.60;99.90;;;;;;5093066;28;20892;-56
2022/10/26 09:36:18;;;;;;;6.87;5.50;;;16.80;99.90;;;;;;5093239;28;20247;-56
2022/10/26 09:38:52;;;;;;;7.90;5.40;;;17.00;99.90;;;;;;5093105;28;20230;-57
2022/10/26 09:41:26;;;;;;;6.07;4.83;;;17.20;99.90;;;;;;5093087;28;20225;-56
2022/10/26 09:44:03;;;;;;;5.00;4.40;;;17.30;99.90;;;;;;5093342;28;20250;-57
2022/10/26 09:46:40;;;;;;;6.30;4.83;;;17.40;99.90;;;;;;5092967;28;20226;-57
2022/10/26 09:49:12;;;;;;;7.07;4.73;;;17.40;99.90;;;;;;5090808;28;20222;-56
2022/10/26 09:51:41;;;;;;;5.10;4.40;;;17.30;99.90;;;;;;5080469;28;20226;-56
2022/10/26 09:54:15;;;;;;;7.37;4.93;;;17.30;99.90;;;;;;5052525;28;20231;-57
2022/10/26 09:56:47;;;;;;;6.07;4.63;;;17.40;99.90;;;;;;5052233;28;20223;-56
2022/10/26 09:59:18;;;;;;;7.87;5.07;;;17.40;99.90;;;;;;5052558;28;20699;-56
2022/10/26 10:01:46;;;;;;;7.67;4.80;;;17.50;99.90;;;;;;5051921;28;20637;-57
2022/10/26 10:04:22;;;;;;;5.47;4.90;;;17.70;99.90;;;;;;5052727;28;20285;-57
2022/10/26 10:06:51;;;;;;;5.90;4.33;;;17.90;99.90;;;;;;5052570;28;20229;-56
2022/10/26 10:09:21;;;;;;;6.57;4.80;;;17.90;99.90;;;;;;5052332;28;20233;-57
2022/10/26 10:11:55;;;;;;;8.03;4.40;;;17.90;99.90;;;;;;5052411;28;20230;-57
2022/10/26 10:14:25;;;;;;;6.33;4.27;;;18.10;99.90;;;;;;5052391;28;20579;-57
2022/10/26 10:16:55;;;;;;;7.20;4.40;;;18.20;99.90;;;;;;5052498;28;20688;-57
2022/10/26 10:19:26;;;;;;;6.83;4.30;;;18.20;99.90;;;;;;5060896;28;20240;-57
2022/10/26 10:21:59;;;;;;;4.70;4.20;;;18.40;99.90;;;;;;5084750;28;20628;-57
2022/10/26 10:24:30;;;;;;;7.77;4.50;;;18.60;99.90;;;;;;5076177;28;20227;-56
2022/10/26 10:27:05;;;;;;;6.43;4.13;;;18.60;99.90;;;;;;5073252;28;20223;-57
2022/10/26 10:29:39;;;;;;;7.77;4.67;;;18.70;99.90;;;;;;5075861;28;20228;-56
2022/10/26 10:32:15;;;;;;;8.53;5.23;;;18.70;99.90;;;;;;5075783;28;20239;-57
2022/10/26 10:34:44;;;;;;;7.50;5.10;;;18.80;99.90;;;;;;5076531;28;20234;-56
2022/10/26 10:37:24;;;;;;;6.73;4.60;;;18.80;99.90;;;;;;5075910;28;20251;-57
2022/10/26 10:39:57;;;;;;;5.97;4.27;;;19.00;99.90;;;;;;5075946;28;20223;-57
2022/10/26 10:42:31;;;;;;;5.17;3.83;;;19.00;99.90;;;;;;5076101;28;20234;-57
2022/10/26 10:45:00;;;;;;;6.57;4.73;;;19.20;99.90;;;;;;5076433;28;20235;-57
2022/10/26 10:47:30;;;;;;;7.50;5.77;;;19.20;99.90;;;;;;5077266;28;20707;-57
2022/10/26 10:50:02;;;;;;;9.93;5.30;;;19.40;99.90;;;;;;5075708;28;20626;-57
2022/10/26 10:52:32;;;;;;;6.73;5.67;;;19.30;99.90;;;;;;5083741;28;20285;-57
2022/10/26 10:55:19;;;;;;;5.93;4.03;;;19.10;99.90;;;;;;5075948;28;20713;-57
2022/10/26 10:58:02;;;;;;;5.47;3.63;;;19.00;99.90;;;;;;5075714;28;20240;-58
2022/10/26 11:00:34;;;;;;;4.60;3.60;;;19.00;99.90;;;;;;5075109;28;20244;-57
2022/10/26 11:03:15;;;;;;;8.70;4.17;;;19.10;99.90;;;;;;5075575;28;20754;-58
2022/10/26 11:05:56;;;;;;;4.47;3.30;;;19.40;99.90;;;;;;5075370;28;20266;-57
2022/10/26 11:08:29;;;;;;;5.30;3.27;;;19.70;99.90;;;;;;5075679;28;20558;-55
2022/10/26 11:11:02;;;;;;;6.23;3.10;;;19.80;99.90;;;;;;5075466;28;20231;-57
2022/10/26 11:13:38;;;;;;;5.90;3.40;;;19.70;99.90;;;;;;5075184;28;20676;-57
2022/10/26 11:16:12;;;;;;;5.60;3.80;;;19.60;99.90;;;;;;5075643;28;20234;-57
2022/10/26 11:18:44;;;;;;;7.10;3.60;;;19.70;99.90;;;;;;5075386;28;20232;-57
2022/10/26 11:21:20;;;;;;;6.83;3.40;;;19.80;99.90;;;;;;5079281;28;20215;-57
2022/10/26 11:23:52;;;;;;;3.83;2.93;;;19.90;99.90;;;;;;5078182;28;20232;-57
2022/10/26 11:26:27;;;;;;;5.73;2.67;;;20.10;99.90;;;;;;5075130;28;20228;-57
2022/10/26 11:29:01;;;;;;;4.87;2.50;;;20.00;99.90;;;;;;5074449;28;20581;-56
2022/10/26 11:31:32;;;;;;;6.40;2.77;;;19.80;99.90;;;;;;5074529;28;20241;-57
2022/10/26 11:34:16;;;;;;;4.33;2.53;;;19.50;99.90;;;;;;5075263;28;20223;-57
2022/10/26 11:36:49;;;;;;;4.40;2.70;;;19.50;99.90;;;;;;5074907;28;20824;-57
2022/10/26 11:39:24;;;;;;;4.60;2.60;;;19.50;99.90;;;;;;5075207;28;20226;-57
2022/10/26 11:41:59;;;;;;;4.07;2.17;;;19.40;99.90;;;;;;5074903;28;20685;-57
2022/10/26 11:44:35;;;;;;;5.53;2.60;;;19.40;99.90;;;;;;5074938;28;20718;-55
2022/10/26 11:47:07;;;;;;;4.47;2.80;;;19.50;99.90;;;;;;5075065;28;20229;-58
2022/10/26 11:49:42;;;;;;;4.40;2.60;;;19.50;99.90;;;;;;5074576;28;20699;-57
2022/10/26 11:52:16;;;;;;;5.90;2.57;;;19.50;99.90;;;;;;5075042;28;20233;-57
2022/10/26 11:54:48;;;;;;;6.57;2.73;;;19.40;99.90;;;;;;5074745;28;20256;-57
2022/10/26 11:57:17;;;;;;;5.67;2.60;;;19.40;99.90;;;;;;5074479;28;20237;-57
2022/10/26 11:59:51;;;;;;;5.73;2.60;;;19.20;99.90;;;;;;5074661;28;20279;-57
2022/10/26 12:02:21;;;;;;;6.93;3.20;;;19.20;99.90;;;;;;5073946;28;20239;-56
2022/10/26 12:04:54;;;;;;;4.20;2.67;;;19.40;99.90;;;;;;5074647;28;20224;-57
2022/10/26 12:07:26;;;;;;;5.77;2.63;;;19.50;99.90;;;;;;5074629;28;20236;-57
2022/10/26 12:09:56;;;;;;;6.30;2.93;;;19.50;99.90;;;;;;5074371;28;20258;-57
2022/10/26 12:12:31;;;;;;;4.47;2.53;;;19.40;99.90;;;;;;5074474;28;20232;-57
2022/10/26 12:15:18;;;;;;;6.23;2.40;;;19.40;99.90;;;;;;5074331;28;20220;-57
2022/10/26 12:17:53;;;;;;;8.17;2.80;;;19.40;99.90;;;;;;5074253;28;20245;-57
2022/10/26 12:20:51;;;;;;;5.00;2.83;;;19.20;99.90;;;;;;5074210;28;20230;-56
2022/10/26 12:23:19;;;;;;;7.03;3.27;;;19.20;99.90;;;;;;5080533;28;20276;-57
2022/10/26 12:26:47;;;;;;;4.63;2.90;;;19.30;99.90;;;;;;5094097;28;20228;-57
2022/10/26 12:29:44;;;;;;;6.37;2.73;;;19.20;99.90;;;;;;5094484;28;20221;-57
2022/10/26 12:32:46;;;;;;;5.50;3.00;;;19.10;99.90;;;;;;5070830;28;20242;-57
2022/10/26 12:35:42;;;;;;;5.90;2.93;;;19.20;99.90;;;;;;5071716;28;20587;-57
2022/10/26 12:38:48;;;;;;;4.90;2.53;;;19.10;99.90;;;;;;5054046;28;20245;-57
2022/10/26 12:41:26;;;;;;;3.97;2.40;;;19.10;99.90;;;;;;5053596;28;20686;-57
2022/10/26 12:43:58;;;;;;;5.07;2.43;;;19.20;99.90;;;;;;5056385;28;20234;-58
2022/10/26 12:46:44;;;;;;;5.87;2.60;;;19.20;99.90;;;;;;5053695;28;20310;-56
2022/10/26 12:49:59;;;;;;;5.87;2.80;;;19.30;99.90;;;;;;5053468;28;20324;-57
2022/10/26 12:52:56;;;;;;;4.40;2.90;;;19.40;99.90;;;;;;5055847;28;20225;-57
2022/10/26 12:56:04;;;;;;;5.63;2.80;;;19.30;99.90;;;;;;5008235;28;20239;-57
2022/10/26 12:59:01;;;;;;;6.17;3.37;;;19.20;99.90;;;;;;5053349;28;20597;-57
2022/10/26 13:01:58;;;;;;;8.13;2.60;;;19.10;99.90;;;;;;5052721;28;20233;-57
2022/10/26 13:04:56;;;;;;;9.53;2.87;;;19.10;99.90;;;;;;5053125;28;20299;-57